Time;durP1;ratioP1;P1;durP2;ratioP2;P2;SDS_P1;SDS_P2;PMS_P1;PMS_P2;Temp;Humidity;BMP_temperature;BMP_pressure;BME280_temperature;BME280_humidity;BME280_pressure;Samples;Min_cycle;Max_cycle;Signal;HPM_P1;HPM_P2
2021/08/19 00:01:33;;;;;;;13.10;7.05;;;16.00;99.90;;;;;;5061769;28;20055;-62
2021/08/19 00:03:59;;;;;;;14.27;7.50;;;16.00;99.90;;;;;;5059482;28;20049;-62
2021/08/19 00:06:25;;;;;;;11.27;6.63;;;16.00;99.90;;;;;;5063283;28;20077;-62
2021/08/19 00:08:51;;;;;;;12.93;8.32;;;16.00;99.90;;;;;;5061332;28;20083;-62
2021/08/19 00:11:17;;;;;;;13.50;7.68;;;16.00;99.90;;;;;;5060677;28;20041;-63
2021/08/19 00:13:43;;;;;;;10.43;7.47;;;16.00;99.90;;;;;;5062610;28;20127;-62
2021/08/19 00:16:09;;;;;;;8.23;6.78;;;15.90;99.90;;;;;;5057739;28;20045;-62
2021/08/19 00:18:36;;;;;;;14.70;8.25;;;15.90;99.90;;;;;;5064262;28;20044;-62
2021/08/19 00:21:02;;;;;;;;;;;15.80;99.90;;;;;;5057049;28;20076;-62
2021/08/19 00:23:36;;;;;;;11.73;7.63;;;15.90;99.90;;;;;;5063624;28;19929;-62
2021/08/19 00:26:03;;;;;;;14.57;7.97;;;15.80;99.90;;;;;;5055814;28;20087;-62
2021/08/19 00:28:28;;;;;;;15.15;8.00;;;15.80;99.90;;;;;;5062422;28;20055;-62
2021/08/19 00:30:54;;;;;;;9.98;7.53;;;15.80;99.90;;;;;;5055128;28;20447;-62
2021/08/19 00:33:20;;;;;;;12.60;7.68;;;15.80;99.90;;;;;;5061836;28;20049;-62
2021/08/19 00:35:46;;;;;;;11.98;7.38;;;15.80;99.90;;;;;;5053975;28;20144;-64
2021/08/19 00:38:11;;;;;;;13.90;7.32;;;15.80;99.90;;;;;;5061244;28;20052;-62
2021/08/19 00:40:38;;;;;;;11.35;7.65;;;15.80;99.90;;;;;;5052951;28;20053;-62
2021/08/19 00:43:06;;;;;;;10.05;7.53;;;15.80;99.90;;;;;;5059942;28;20045;-62
2021/08/19 00:45:38;;;;;;;14.77;7.78;;;15.80;99.90;;;;;;5062503;28;20077;-62
2021/08/19 00:48:05;;;;;;;11.93;7.35;;;15.80;99.90;;;;;;5058015;28;20277;-62
2021/08/19 00:50:31;;;;;;;13.30;7.57;;;15.80;99.90;;;;;;5061061;28;20056;-62
2021/08/19 00:52:58;;;;;;;14.38;7.38;;;15.80;99.90;;;;;;5053888;28;20834;-62
2021/08/19 00:55:24;;;;;;;15.73;7.32;;;15.80;99.90;;;;;;5060497;28;20493;-62
2021/08/19 00:57:50;;;;;;;18.27;7.53;;;15.80;99.90;;;;;;5053061;28;20052;-62
2021/08/19 01:00:17;;;;;;;15.43;7.50;;;15.80;99.90;;;;;;5059447;28;20056;-62
2021/08/19 01:02:46;;;;;;;12.07;7.18;;;15.70;99.90;;;;;;5052414;28;20053;-62
2021/08/19 01:05:18;;;;;;;11.90;7.70;;;15.70;99.90;;;;;;5058420;28;20064;-63
2021/08/19 01:07:46;;;;;;;12.57;7.32;;;15.70;99.90;;;;;;5052098;28;20051;-62
2021/08/19 01:10:13;;;;;;;11.85;7.45;;;15.70;99.90;;;;;;5058354;28;20040;-62
2021/08/19 01:12:46;;;;;;;14.13;7.88;;;15.70;99.90;;;;;;5065049;28;20055;-63
2021/08/19 01:15:12;;;;;;;17.10;7.32;;;15.70;99.90;;;;;;5052771;28;20045;-62
2021/08/19 01:17:38;;;;;;;10.27;7.30;;;15.70;99.90;;;;;;5064331;28;20045;-62
2021/08/19 01:20:05;;;;;;;17.13;8.32;;;15.70;99.90;;;;;;5056453;28;20037;-62
2021/08/19 01:22:32;;;;;;;13.30;7.63;;;15.60;99.90;;;;;;5063424;28;20064;-62
2021/08/19 01:24:58;;;;;;;13.15;8.02;;;15.70;99.90;;;;;;5055973;28;20053;-62
2021/08/19 01:27:23;;;;;;;14.30;8.15;;;15.70;99.90;;;;;;5062424;28;20095;-62
2021/08/19 01:29:51;;;;;;;17.58;8.50;;;15.70;99.90;;;;;;5055022;28;20412;-63
2021/08/19 01:32:17;;;;;;;16.48;8.85;;;15.70;99.90;;;;;;5061722;28;20040;-62
2021/08/19 01:34:43;;;;;;;16.25;8.85;;;15.70;99.90;;;;;;5055107;28;20065;-62
2021/08/19 01:37:11;;;;;;;15.45;9.43;;;15.70;99.90;;;;;;5059927;28;20525;-62
2021/08/19 01:39:37;;;;;;;12.48;8.40;;;15.70;99.90;;;;;;5056125;28;20136;-62
2021/08/19 01:42:04;;;;;;;16.67;7.90;;;15.70;99.90;;;;;;5057773;28;20067;-62
2021/08/19 01:44:30;;;;;;;14.65;8.77;;;15.70;99.90;;;;;;5056698;28;20103;-62
2021/08/19 01:47:00;;;;;;;15.15;8.88;;;15.70;99.90;;;;;;5055328;28;20052;-63
2021/08/19 01:49:28;;;;;;;9.70;7.72;;;15.70;99.90;;;;;;5076301;28;20041;-62
2021/08/19 01:51:53;;;;;;;17.95;8.73;;;15.80;99.90;;;;;;5062928;28;20038;-62
2021/08/19 01:54:20;;;;;;;12.48;8.50;;;15.70;99.90;;;;;;5056615;28;20041;-62
2021/08/19 01:56:46;;;;;;;17.38;8.27;;;15.80;99.90;;;;;;5064875;28;20045;-63
2021/08/19 01:59:12;;;;;;;12.23;8.20;;;15.80;99.90;;;;;;5073593;28;20133;-63
2021/08/19 02:01:38;;;;;;;20.67;8.70;;;15.80;99.90;;;;;;5052338;28;20049;-63
2021/08/19 02:04:04;;;;;;;16.45;8.38;;;15.90;99.90;;;;;;5060023;28;20045;-62
2021/08/19 02:06:30;;;;;;;12.48;8.43;;;15.90;99.90;;;;;;5057310;28;20050;-62
2021/08/19 02:08:56;;;;;;;13.50;8.50;;;15.80;99.90;;;;;;5075415;28;20041;-62
2021/08/19 02:11:24;;;;;;;13.25;8.30;;;15.90;99.90;;;;;;5079216;28;20072;-63
2021/08/19 02:13:49;;;;;;;;;;;15.90;99.90;;;;;;5070669;28;20044;-62
2021/08/19 02:16:15;;;;;;;13.35;8.68;;;15.90;99.90;;;;;;5081751;28;20263;-62
2021/08/19 02:18:41;;;;;;;15.13;8.45;;;15.90;99.90;;;;;;5068522;28;20428;-63
2021/08/19 02:21:07;;;;;;;15.95;8.55;;;15.90;99.90;;;;;;5076894;28;20040;-63
2021/08/19 02:23:33;;;;;;;12.13;8.25;;;15.90;99.90;;;;;;5065731;28;20048;-62
2021/08/19 02:25:59;;;;;;;14.55;8.70;;;15.90;99.90;;;;;;5076963;28;20044;-62
2021/08/19 02:28:25;;;;;;;15.35;8.75;;;15.90;99.90;;;;;;5062923;28;20067;-62
2021/08/19 02:30:50;;;;;;;14.98;8.88;;;16.00;99.90;;;;;;5075773;28;20070;-62
2021/08/19 02:33:16;;;;;;;14.63;8.68;;;16.00;99.90;;;;;;5061370;28;20051;-62
2021/08/19 02:35:42;;;;;;;15.45;8.68;;;16.00;99.90;;;;;;5074123;28;20087;-62
2021/08/19 02:38:08;;;;;;;13.82;8.95;;;16.00;99.90;;;;;;5059662;28;20048;-62
2021/08/19 02:40:36;;;;;;;14.07;9.70;;;16.10;99.90;;;;;;5071316;28;20044;-62
2021/08/19 02:43:04;;;;;;;15.30;9.88;;;16.10;99.90;;;;;;5058065;28;20045;-62
2021/08/19 02:45:30;;;;;;;12.30;8.75;;;16.10;99.90;;;;;;5062426;28;20056;-63
2021/08/19 02:47:55;;;;;;;15.07;8.65;;;16.10;99.90;;;;;;5051537;28;20045;-62
2021/08/19 02:50:21;;;;;;;13.95;9.98;;;16.10;99.90;;;;;;5069478;28;20046;-62
2021/08/19 02:52:47;;;;;;;18.45;9.80;;;16.10;99.90;;;;;;5058398;28;20045;-62
2021/08/19 02:55:13;;;;;;;15.05;9.50;;;16.10;99.90;;;;;;5061899;28;20504;-62
2021/08/19 02:57:38;;;;;;;14.55;9.68;;;16.10;99.90;;;;;;5072146;28;20049;-62
2021/08/19 03:00:06;;;;;;;12.65;9.45;;;16.10;99.90;;;;;;5064905;28;20081;-62
2021/08/19 03:02:32;;;;;;;15.38;10.38;;;16.10;99.90;;;;;;5077799;28;20048;-62
2021/08/19 03:04:58;;;;;;;16.88;10.70;;;16.10;99.90;;;;;;5063706;28;20097;-62
2021/08/19 03:07:24;;;;;;;19.00;11.88;;;16.10;99.90;;;;;;5076234;28;20067;-62
2021/08/19 03:09:50;;;;;;;17.35;11.20;;;16.20;99.90;;;;;;5069216;28;20080;-62
2021/08/19 03:12:16;;;;;;;16.10;11.45;;;16.10;99.90;;;;;;5071632;28;20071;-63
2021/08/19 03:14:42;;;;;;;16.60;12.00;;;16.00;99.90;;;;;;5068214;28;20041;-61
2021/08/19 03:17:09;;;;;;;19.55;10.43;;;16.10;99.90;;;;;;5066530;28;20065;-61
2021/08/19 03:19:36;;;;;;;19.42;12.80;;;16.00;99.90;;;;;;5071236;28;20049;-62
2021/08/19 03:22:02;;;;;;;14.90;12.07;;;16.00;99.90;;;;;;5052815;28;20110;-62
2021/08/19 03:24:29;;;;;;;16.15;12.07;;;16.00;99.90;;;;;;5072961;28;20128;-62
2021/08/19 03:26:55;;;;;;;15.82;11.13;;;16.00;99.90;;;;;;5059129;28;20401;-63
2021/08/19 03:29:23;;;;;;;15.60;10.30;;;16.00;99.90;;;;;;5063714;28;20041;-62
2021/08/19 03:31:49;;;;;;;15.95;11.48;;;15.90;99.90;;;;;;5050877;28;20041;-62
2021/08/19 03:34:15;;;;;;;12.93;10.13;;;15.90;99.90;;;;;;5071834;28;20065;-62
2021/08/19 03:36:41;;;;;;;16.48;10.70;;;15.90;99.90;;;;;;5049519;28;20056;-62
2021/08/19 03:39:06;;;;;;;18.15;10.77;;;16.00;99.90;;;;;;5074836;28;20048;-62
2021/08/19 03:41:33;;;;;;;14.63;10.80;;;16.00;99.90;;;;;;5084379;28;20484;-62
2021/08/19 03:43:59;;;;;;;15.77;12.27;;;16.00;99.90;;;;;;5072484;28;20104;-63
2021/08/19 03:46:27;;;;;;;16.33;11.48;;;16.00;99.90;;;;;;5080336;28;20041;-63
2021/08/19 03:48:53;;;;;;;19.27;12.32;;;16.00;99.90;;;;;;5059118;28;20045;-62
2021/08/19 03:51:19;;;;;;;19.95;13.52;;;16.00;99.90;;;;;;5068516;28;20412;-63
2021/08/19 03:53:49;;;;;;;21.35;14.07;;;16.00;99.90;;;;;;5067700;28;20045;-62
2021/08/19 03:56:14;;;;;;;23.73;13.57;;;16.00;99.90;;;;;;5068379;28;20049;-62
2021/08/19 03:58:40;;;;;;;18.13;14.45;;;16.00;99.90;;;;;;5071479;28;20044;-62
2021/08/19 04:01:06;;;;;;;17.83;14.77;;;16.00;99.90;;;;;;5071130;28;20045;-62
2021/08/19 04:03:32;;;;;;;22.73;14.65;;;16.00;99.90;;;;;;5084962;28;20108;-62
2021/08/19 04:05:58;;;;;;;20.38;14.20;;;16.00;99.90;;;;;;5069610;28;20083;-62
2021/08/19 04:08:23;;;;;;;22.95;15.25;;;15.90;99.90;;;;;;5083309;28;20064;-62
2021/08/19 04:10:49;;;;;;;22.63;15.75;;;16.00;99.90;;;;;;5068591;28;20044;-62
2021/08/19 04:13:15;;;;;;;23.58;17.38;;;16.00;99.90;;;;;;5082039;28;20072;-63
2021/08/19 04:15:41;;;;;;;23.27;16.60;;;16.00;99.90;;;;;;5062326;28;20041;-62
2021/08/19 04:18:07;;;;;;;25.10;16.52;;;16.00;99.90;;;;;;5063815;28;20041;-62
2021/08/19 04:20:33;;;;;;;23.90;15.75;;;16.00;99.90;;;;;;5061371;28;20145;-62
2021/08/19 04:22:59;;;;;;;22.90;16.98;;;16.00;99.90;;;;;;5079100;28;20052;-62
2021/08/19 04:25:25;;;;;;;26.92;16.38;;;16.00;99.90;;;;;;5064233;28;20509;-62
2021/08/19 04:27:52;;;;;;;26.27;18.25;;;16.00;99.90;;;;;;5070616;28;20049;-62
2021/08/19 04:30:17;;;;;;;27.20;16.20;;;16.00;99.90;;;;;;5058237;28;20144;-62
2021/08/19 04:32:45;;;;;;;;;;;16.00;99.90;;;;;;5074224;28;20059;-62
2021/08/19 04:35:11;;;;;;;26.17;17.33;;;16.00;99.90;;;;;;5067413;28;19921;-62
2021/08/19 04:37:37;;;;;;;27.30;18.15;;;16.00;99.90;;;;;;5068136;28;20119;-62
2021/08/19 04:40:04;;;;;;;22.50;17.70;;;16.10;99.90;;;;;;5070201;28;20071;-62
2021/08/19 04:42:30;;;;;;;23.80;17.67;;;16.10;99.90;;;;;;5062957;28;20044;-62
2021/08/19 04:44:56;;;;;;;30.40;17.55;;;16.10;99.90;;;;;;5072702;28;20045;-62
2021/08/19 04:47:24;;;;;;;23.48;16.83;;;16.10;99.90;;;;;;5046805;28;20049;-62
2021/08/19 04:49:55;;;;;;;25.33;17.85;;;16.10;99.90;;;;;;5052205;28;20140;-62
2021/08/19 04:52:21;;;;;;;25.60;17.23;;;16.10;99.90;;;;;;5065560;28;20037;-63
2021/08/19 04:54:46;;;;;;;31.25;17.85;;;16.10;99.90;;;;;;5066791;28;20082;-62
2021/08/19 04:57:12;;;;;;;27.38;18.80;;;16.10;99.90;;;;;;5062363;28;20461;-62
2021/08/19 04:59:38;;;;;;;27.92;19.88;;;16.20;99.90;;;;;;5062060;28;20049;-62
2021/08/19 05:02:04;;;;;;;26.67;17.45;;;16.20;99.90;;;;;;5075015;28;20103;-62
2021/08/19 05:04:30;;;;;;;30.85;18.48;;;16.20;99.90;;;;;;5060648;28;20129;-62
2021/08/19 05:06:55;;;;;;;28.85;17.20;;;16.20;99.90;;;;;;5073186;28;20139;-62
2021/08/19 05:09:23;;;;;;;22.50;16.80;;;16.20;99.90;;;;;;5066599;28;20072;-62
2021/08/19 05:11:49;;;;;;;22.33;17.15;;;16.20;99.90;;;;;;5073094;28;20102;-62
2021/08/19 05:14:14;;;;;;;28.15;18.60;;;16.20;99.90;;;;;;5085212;28;20048;-62
2021/08/19 05:16:40;;;;;;;23.98;17.13;;;16.20;99.90;;;;;;5058604;28;20049;-62
2021/08/19 05:19:06;;;;;;;25.08;15.73;;;16.30;99.90;;;;;;5083124;28;20036;-62
2021/08/19 05:21:32;;;;;;;24.35;15.98;;;16.30;99.90;;;;;;5057160;28;20063;-62
2021/08/19 05:24:04;;;;;;;21.92;16.10;;;16.30;99.90;;;;;;5081106;28;20412;-62
2021/08/19 05:26:29;;;;;;;25.38;17.42;;;16.30;99.90;;;;;;5066640;28;20043;-62
2021/08/19 05:28:55;;;;;;;22.00;17.10;;;16.30;99.90;;;;;;5078798;28;20049;-62
2021/08/19 05:31:21;;;;;;;29.58;16.30;;;16.30;99.90;;;;;;5060450;28;20040;-62
2021/08/19 05:33:47;;;;;;;25.20;15.18;;;16.40;99.90;;;;;;5072820;28;20056;-62
2021/08/19 05:36:13;;;;;;;27.60;15.88;;;16.40;99.90;;;;;;5063284;28;20064;-62
2021/08/19 05:38:39;;;;;;;24.65;16.67;;;16.40;99.90;;;;;;5077453;28;20055;-62
2021/08/19 05:41:07;;;;;;;28.48;17.30;;;16.40;99.90;;;;;;5062051;28;20052;-62
2021/08/19 05:43:41;;;;;;;28.13;16.70;;;16.40;99.90;;;;;;5075744;28;20044;-62
2021/08/19 05:46:08;;;;;;;26.05;16.20;;;16.40;99.90;;;;;;5060335;28;20071;-62
2021/08/19 05:48:35;;;;;;;27.80;16.58;;;16.40;99.90;;;;;;5073892;28;20059;-63
2021/08/19 05:51:01;;;;;;;26.38;16.05;;;16.40;99.90;;;;;;5058844;28;20049;-62
2021/08/19 05:53:27;;;;;;;22.58;16.58;;;16.50;99.90;;;;;;5072428;28;20112;-62
2021/08/19 05:55:53;;;;;;;27.42;15.90;;;16.50;99.90;;;;;;5077443;28;20051;-62
2021/08/19 05:58:19;;;;;;;26.45;16.83;;;16.50;99.90;;;;;;5067205;28;20061;-62
2021/08/19 06:00:47;;;;;;;26.00;15.73;;;16.50;99.90;;;;;;5075312;28;20060;-62
2021/08/19 06:03:15;;;;;;;26.10;17.40;;;16.50;99.90;;;;;;5061976;28;20045;-62
2021/08/19 06:05:45;;;;;;;30.67;18.10;;;16.50;99.90;;;;;;5058081;28;20048;-62
2021/08/19 06:08:11;;;;;;;23.98;17.50;;;16.50;99.90;;;;;;5063037;28;20084;-62
2021/08/19 06:10:38;;;;;;;27.50;17.37;;;16.50;99.90;;;;;;5070771;28;20033;-62
2021/08/19 06:13:04;;;;;;;29.45;17.20;;;16.50;99.90;;;;;;5065066;28;20052;-62
2021/08/19 06:15:30;;;;;;;27.60;18.83;;;16.60;99.90;;;;;;5064567;28;20454;-62
2021/08/19 06:17:58;;;;;;;29.70;18.88;;;16.50;99.90;;;;;;5067163;28;20048;-62
2021/08/19 06:20:24;;;;;;;28.77;19.25;;;16.50;99.90;;;;;;5058967;28;20045;-62
2021/08/19 06:22:52;;;;;;;27.20;18.23;;;16.60;99.90;;;;;;5057477;28;20079;-62
2021/08/19 06:25:19;;;;;;;36.03;18.33;;;16.60;99.90;;;;;;5056980;28;20088;-62
2021/08/19 06:27:46;;;;;;;29.90;18.48;;;16.60;99.90;;;;;;5081586;28;20307;-61
2021/08/19 06:30:12;;;;;;;30.05;18.10;;;16.70;99.90;;;;;;5072045;28;20046;-61
2021/08/19 06:32:39;;;;;;;31.17;18.13;;;16.70;99.90;;;;;;5064124;28;20068;-62
2021/08/19 06:35:06;;;;;;;29.52;17.63;;;16.80;99.90;;;;;;5073863;28;20041;-62
2021/08/19 06:37:40;;;;;;;29.25;17.85;;;16.80;99.90;;;;;;5071553;28;20110;-62
2021/08/19 06:40:07;;;;;;;30.70;19.40;;;16.80;99.90;;;;;;5073702;28;20038;-62
2021/08/19 06:42:34;;;;;;;28.75;19.25;;;16.80;99.90;;;;;;5068803;28;20053;-61
2021/08/19 06:45:00;;;;;;;39.20;19.85;;;16.70;99.90;;;;;;5075731;28;20051;-62
2021/08/19 06:47:26;;;;;;;37.80;21.52;;;16.70;99.90;;;;;;5062813;28;20068;-62
2021/08/19 06:49:52;;;;;;;38.15;20.02;;;16.70;99.90;;;;;;5074696;28;20041;-61
2021/08/19 06:52:18;;;;;;;34.72;20.80;;;16.70;99.90;;;;;;5061038;28;20045;-61
2021/08/19 06:54:44;;;;;;;31.98;19.17;;;16.70;99.90;;;;;;5060340;28;20068;-61
2021/08/19 06:57:10;;;;;;;22.27;15.68;;;16.70;99.90;;;;;;5067470;28;20040;-61
2021/08/19 06:59:35;;;;;;;21.52;15.48;;;16.70;99.90;;;;;;5066308;28;20056;-62
2021/08/19 07:02:01;;;;;;;21.08;12.82;;;16.70;99.90;;;;;;5075973;28;20129;-62
2021/08/19 07:04:27;;;;;;;20.52;10.13;;;16.80;99.90;;;;;;5064608;28;20067;-61
2021/08/19 07:06:53;;;;;;;14.75;11.73;;;16.80;99.90;;;;;;5076906;28;20040;-61
2021/08/19 07:09:19;;;;;;;15.05;10.75;;;16.80;99.90;;;;;;5054455;28;20045;-61
2021/08/19 07:11:44;;;;;;;16.48;11.35;;;16.70;99.90;;;;;;5073541;28;20048;-62
2021/08/19 07:14:10;;;;;;;19.55;11.80;;;16.70;99.90;;;;;;5060774;28;20040;-62
2021/08/19 07:16:37;;;;;;;14.82;11.45;;;16.70;99.90;;;;;;5073701;28;20048;-62
2021/08/19 07:19:03;;;;;;;18.98;11.60;;;16.70;99.90;;;;;;5059396;28;20040;-62
2021/08/19 07:21:30;;;;;;;;;;;16.70;99.90;;;;;;5063067;28;20145;-62
2021/08/19 07:23:55;;;;;;;16.33;11.18;;;16.70;99.90;;;;;;5053413;28;19952;-62
2021/08/19 07:26:22;;;;;;;12.52;10.30;;;16.80;99.90;;;;;;5071053;28;20044;-62
2021/08/19 07:28:57;;;;;;;18.17;10.20;;;16.80;99.90;;;;;;5056358;28;20136;-62
2021/08/19 07:31:23;;;;;;;13.38;9.40;;;16.80;99.90;;;;;;5069447;28;20036;-62
2021/08/19 07:33:49;;;;;;;12.32;9.57;;;16.90;99.90;;;;;;5068319;28;20500;-62
2021/08/19 07:36:15;;;;;;;13.65;9.15;;;17.00;99.90;;;;;;5067589;28;20055;-62
2021/08/19 07:38:41;;;;;;;13.88;8.73;;;17.20;99.90;;;;;;5079577;28;20044;-63
2021/08/19 07:41:08;;;;;;;12.23;8.55;;;17.30;99.90;;;;;;5066541;28;20060;-62
2021/08/19 07:43:34;;;;;;;12.45;9.40;;;17.40;99.90;;;;;;5079944;28;20127;-61
2021/08/19 07:46:00;;;;;;;11.98;8.80;;;17.40;99.90;;;;;;5063214;28;20049;-61
2021/08/19 07:48:26;;;;;;;13.25;8.98;;;17.30;99.90;;;;;;5069321;28;20037;-62
2021/08/19 07:50:52;;;;;;;11.95;9.20;;;17.20;99.90;;;;;;5063607;28;20084;-62
2021/08/19 07:53:17;;;;;;;15.20;10.07;;;17.10;99.90;;;;;;5077077;28;20096;-61
2021/08/19 07:55:43;;;;;;;17.08;10.80;;;17.00;99.90;;;;;;5066745;28;20053;-61
2021/08/19 07:58:09;;;;;;;15.73;11.60;;;16.80;99.90;;;;;;5055703;28;20390;-61
2021/08/19 08:00:36;;;;;;;13.93;10.10;;;16.70;99.90;;;;;;5055663;28;20067;-60
2021/08/19 08:03:02;;;;;;;19.27;11.77;;;16.60;99.90;;;;;;5067812;28;20413;-60
2021/08/19 08:05:33;;;;;;;23.10;13.45;;;16.60;99.90;;;;;;5071245;28;20175;-60
2021/08/19 08:08:07;;;;;;;17.13;9.85;;;16.60;99.90;;;;;;5061931;28;20064;-62
2021/08/19 08:10:37;;;;;;;16.80;10.18;;;16.60;99.90;;;;;;5073823;28;20560;-63
2021/08/19 08:13:03;;;;;;;46.63;12.82;;;16.50;99.90;;;;;;5070142;28;20052;-64
2021/08/19 08:15:29;;;;;;;26.92;9.45;;;16.30;99.90;;;;;;5067067;28;20041;-63
2021/08/19 08:17:56;;;;;;;19.30;10.05;;;16.00;99.90;;;;;;5061292;28;20045;-64
2021/08/19 08:20:22;;;;;;;182.02;29.70;;;15.90;99.90;;;;;;5080062;28;20404;-63
2021/08/19 08:22:50;;;;;;;27.85;11.52;;;15.90;99.90;;;;;;5075043;28;20057;-64
2021/08/19 08:25:17;;;;;;;25.02;9.68;;;15.90;99.90;;;;;;5065040;28;20042;-64
2021/08/19 08:27:52;;;;;;;45.07;11.80;;;16.00;99.90;;;;;;5074009;28;20049;-64
2021/08/19 08:30:18;;;;;;;23.40;10.45;;;15.90;99.90;;;;;;5063975;28;20379;-64
2021/08/19 08:32:43;;;;;;;81.32;15.10;;;16.00;99.90;;;;;;5078184;28;20043;-64
2021/08/19 08:35:09;;;;;;;29.65;9.73;;;16.00;99.90;;;;;;5071580;28;20757;-64
2021/08/19 08:37:35;;;;;;;21.27;9.73;;;16.00;99.90;;;;;;5075873;28;20105;-64
2021/08/19 08:40:01;;;;;;;11.05;7.70;;;16.10;99.90;;;;;;5054182;28;20052;-64
2021/08/19 08:42:28;;;;;;;53.90;12.98;;;16.00;99.90;;;;;;5074619;28;20060;-64
2021/08/19 08:44:54;;;;;;;31.10;9.90;;;16.10;99.90;;;;;;5059461;28;20060;-64
2021/08/19 08:47:20;;;;;;;41.50;11.02;;;16.20;99.90;;;;;;5059387;28;20128;-64
2021/08/19 08:49:47;;;;;;;130.60;21.77;;;16.20;99.90;;;;;;5070463;28;20051;-65
2021/08/19 08:52:12;;;;;;;32.08;9.93;;;16.30;99.90;;;;;;5069484;28;20044;-65
2021/08/19 08:54:38;;;;;;;18.38;8.18;;;16.20;99.90;;;;;;5083347;28;20504;-65
2021/08/19 08:57:04;;;;;;;14.70;7.18;;;16.30;99.90;;;;;;5059490;28;20120;-64
2021/08/19 08:59:30;;;;;;;11.75;7.53;;;16.40;99.90;;;;;;5073733;28;20065;-65
2021/08/19 09:01:56;;;;;;;11.18;6.00;;;16.60;99.90;;;;;;5058774;28;20044;-65
2021/08/19 09:04:23;;;;;;;10.05;6.18;;;16.60;99.90;;;;;;5066639;28;20458;-64
2021/08/19 09:06:50;;;;;;;8.95;5.93;;;16.60;99.90;;;;;;5057683;28;20049;-64
2021/08/19 09:09:22;;;;;;;6.20;4.93;;;16.80;99.90;;;;;;5070814;28;20048;-64
2021/08/19 09:11:56;;;;;;;8.30;5.43;;;16.80;99.90;;;;;;5069563;28;20627;-64
2021/08/19 09:14:24;;;;;;;5.95;4.80;;;17.10;99.90;;;;;;5065399;28;20036;-64
2021/08/19 09:16:51;;;;;;;5.75;4.80;;;17.00;99.90;;;;;;5077175;28;20071;-65
2021/08/19 09:19:19;;;;;;;6.32;4.30;;;17.00;99.90;;;;;;5063158;28;20051;-64
2021/08/19 09:21:51;;;;;;;7.72;4.88;;;17.00;99.90;;;;;;5080902;28;20131;-64
2021/08/19 09:24:22;;;;;;;8.45;5.85;;;17.00;99.90;;;;;;5066591;28;20044;-64
2021/08/19 09:26:49;;;;;;;7.10;5.65;;;16.90;99.90;;;;;;5079553;28;20041;-64
2021/08/19 09:29:29;;;;;;;6.97;5.25;;;16.90;99.90;;;;;;5064893;28;20044;-64
2021/08/19 09:32:11;;;;;;;10.45;6.57;;;16.90;99.90;;;;;;5077949;28;20040;-64
2021/08/19 09:34:39;;;;;;;11.05;7.40;;;17.00;99.90;;;;;;5057973;28;20040;-64
2021/08/19 09:37:16;;;;;;;13.98;8.32;;;17.00;99.90;;;;;;5075719;28;20071;-64
2021/08/19 09:39:47;;;;;;;10.02;7.15;;;17.10;99.90;;;;;;5061866;28;20045;-64
2021/08/19 09:42:14;;;;;;;12.23;7.72;;;16.90;99.90;;;;;;5075437;28;20434;-64
2021/08/19 09:44:41;;;;;;;27.93;9.50;;;16.90;99.90;;;;;;5060315;28;20047;-64
2021/08/19 09:47:29;;;;;;;26.33;9.73;;;16.90;99.90;;;;;;5073165;28;20314;-64
2021/08/19 09:50:16;;;;;;;12.15;8.98;;;16.80;99.90;;;;;;5057924;28;20040;-64
2021/08/19 09:52:43;;;;;;;11.15;8.65;;;17.00;99.90;;;;;;5073917;28;20048;-64
2021/08/19 09:55:24;;;;;;;10.55;8.98;;;17.10;99.90;;;;;;5051837;28;20041;-64
2021/08/19 09:57:50;;;;;;;11.65;9.00;;;17.10;99.90;;;;;;5063951;28;20048;-65
2021/08/19 10:00:25;;;;;;;11.90;9.77;;;17.10;99.90;;;;;;5077317;28;20109;-64
2021/08/19 10:02:52;;;;;;;10.15;8.75;;;17.20;99.90;;;;;;5053387;28;20045;-64
2021/08/19 10:05:18;;;;;;;12.75;8.88;;;17.30;99.90;;;;;;5075560;28;20040;-65
2021/08/19 10:07:44;;;;;;;13.00;8.50;;;17.30;99.90;;;;;;5067584;28;20040;-64
2021/08/19 10:10:10;;;;;;;9.80;7.82;;;17.20;99.90;;;;;;5074652;28;20185;-64
2021/08/19 10:12:41;;;;;;;11.55;8.82;;;17.20;99.90;;;;;;5059602;28;20048;-64
2021/08/19 10:15:07;;;;;;;10.23;8.23;;;17.20;99.90;;;;;;5072746;28;20083;-64
2021/08/19 10:17:35;;;;;;;10.93;8.27;;;17.30;99.90;;;;;;5056639;28;20064;-64
2021/08/19 10:20:06;;;;;;;13.00;9.25;;;17.40;99.90;;;;;;5070258;28;20124;-64
2021/08/19 10:22:34;;;;;;;10.85;8.25;;;17.40;99.90;;;;;;5069622;28;20049;-64
2021/08/19 10:25:01;;;;;;;11.98;7.68;;;17.50;99.90;;;;;;5068595;28;20050;-64
2021/08/19 10:27:29;;;;;;;9.80;7.55;;;17.50;99.90;;;;;;5081476;28;20040;-64
2021/08/19 10:30:06;;;;;;;13.52;8.27;;;17.50;99.90;;;;;;5067261;28;20109;-64
2021/08/19 10:32:33;;;;;;;13.80;7.35;;;17.60;99.90;;;;;;5075089;28;20049;-64
2021/08/19 10:35:06;;;;;;;10.02;6.88;;;17.40;99.90;;;;;;5072363;28;20052;-64
2021/08/19 10:37:50;;;;;;;7.70;6.28;;;17.30;99.90;;;;;;5078741;28;20048;-65
2021/08/19 10:40:22;;;;;;;10.70;7.10;;;17.10;99.90;;;;;;5074839;28;20048;-65
2021/08/19 10:42:59;;;;;;;11.98;7.60;;;17.20;99.90;;;;;;5078954;28;20404;-65
2021/08/19 10:45:28;;;;;;;11.73;7.20;;;17.20;99.90;;;;;;5063110;28;20048;-65
2021/08/19 10:47:54;;;;;;;10.52;6.82;;;17.10;99.90;;;;;;5076893;28;20067;-64
2021/08/19 10:50:33;;;;;;;15.65;8.27;;;17.00;99.90;;;;;;5062091;28;20041;-65
2021/08/19 10:53:16;;;;;;;12.20;9.15;;;17.10;99.90;;;;;;5061807;28;20052;-65
2021/08/19 10:55:50;;;;;;;11.13;6.93;;;17.10;99.90;;;;;;5052480;28;20641;-64
2021/08/19 10:58:23;;;;;;;13.98;7.22;;;17.00;99.90;;;;;;5068439;28;20099;-65
2021/08/19 11:00:49;;;;;;;13.75;7.35;;;17.10;99.90;;;;;;5075541;28;20061;-65
2021/08/19 11:03:39;;;;;;;14.95;7.78;;;17.20;99.90;;;;;;5052802;28;20071;-65
2021/08/19 11:06:07;;;;;;;11.00;7.70;;;17.40;99.90;;;;;;5049640;28;20428;-65
2021/08/19 11:08:51;;;;;;;17.42;8.18;;;17.50;99.90;;;;;;5066413;28;20165;-65
2021/08/19 11:11:29;;;;;;;16.30;9.00;;;17.60;99.90;;;;;;5068295;28;20041;-65
2021/08/19 11:13:59;;;;;;;15.57;7.60;;;17.70;99.90;;;;;;5069832;28;20036;-65
2021/08/19 11:16:25;;;;;;;10.50;7.18;;;17.50;99.90;;;;;;5066210;28;20037;-65
2021/08/19 11:18:51;;;;;;;10.13;6.47;;;17.50;99.90;;;;;;5065209;28;20045;-65
2021/08/19 11:21:17;;;;;;;11.85;6.30;;;17.30;99.90;;;;;;5069337;28;20063;-65
2021/08/19 11:23:43;;;;;;;8.35;5.45;;;17.00;99.90;;;;;;5060165;28;20049;-65
2021/08/19 11:26:18;;;;;;;11.50;6.18;;;17.00;99.90;;;;;;5071553;28;20045;-65
2021/08/19 11:28:46;;;;;;;7.72;6.22;;;17.20;99.90;;;;;;5058341;28;20041;-65
2021/08/19 11:31:19;;;;;;;11.18;5.97;;;17.20;99.90;;;;;;5043930;28;20121;-65
2021/08/19 11:33:59;;;;;;;9.00;5.63;;;17.20;99.90;;;;;;5057088;28;20049;-65
2021/08/19 11:36:25;;;;;;;8.95;5.85;;;17.20;99.90;;;;;;5057354;28;20041;-65
2021/08/19 11:39:06;;;;;;;10.35;5.82;;;17.20;99.90;;;;;;5069417;28;20072;-65
2021/08/19 11:41:33;;;;;;;8.43;6.10;;;17.20;99.90;;;;;;5057692;28;20052;-65
2021/08/19 11:44:00;;;;;;;11.20;6.23;;;17.10;99.90;;;;;;5067422;28;20041;-65
2021/08/19 11:46:27;;;;;;;;;;;17.20;99.90;;;;;;5070567;28;20036;-65
2021/08/19 11:49:02;;;;;;;10.88;6.25;;;17.10;99.90;;;;;;5069172;28;19925;-65
2021/08/19 11:51:36;;;;;;;10.30;6.28;;;17.10;99.90;;;;;;5074795;28;20508;-65
2021/08/19 11:54:38;;;;;;;11.23;6.22;;;17.00;99.90;;;;;;5067208;28;20041;-65
2021/08/19 11:57:04;;;;;;;10.93;6.30;;;17.10;99.90;;;;;;5059620;28;20070;-65
2021/08/19 11:59:30;;;;;;;18.25;6.93;;;17.30;99.90;;;;;;5083870;28;20056;-66
2021/08/19 12:01:55;;;;;;;9.63;5.45;;;17.40;99.90;;;;;;5070685;28;20106;-67
2021/08/19 12:04:32;;;;;;;8.48;5.75;;;17.40;99.90;;;;;;5075172;28;20048;-66
2021/08/19 12:06:59;;;;;;;10.93;6.15;;;17.40;99.90;;;;;;5062155;28;20049;-66
2021/08/19 12:09:27;;;;;;;9.85;5.65;;;17.40;99.90;;;;;;5073478;28;20044;-66
2021/08/19 12:11:55;;;;;;;11.02;5.45;;;17.30;99.90;;;;;;5062993;28;20053;-66
2021/08/19 12:14:26;;;;;;;8.95;5.53;;;17.40;99.90;;;;;;5081367;28;20056;-66
2021/08/19 12:16:55;;;;;;;10.35;6.05;;;17.40;99.90;;;;;;5062623;28;20049;-66
2021/08/19 12:19:29;;;;;;;13.00;6.10;;;17.30;99.90;;;;;;5060267;28;20040;-66
2021/08/19 12:21:58;;;;;;;14.77;6.85;;;17.50;99.90;;;;;;5065716;28;20106;-66
2021/08/19 12:24:25;;;;;;;13.13;6.20;;;17.40;99.90;;;;;;5058984;28;20039;-66
2021/08/19 12:27:14;;;;;;;12.55;5.57;;;17.40;99.90;;;;;;5067011;28;20049;-66
2021/08/19 12:29:48;;;;;;;10.90;5.50;;;17.30;99.90;;;;;;5061637;28;20044;-67
2021/08/19 12:32:30;;;;;;;10.60;5.60;;;17.40;99.90;;;;;;5061634;28;20045;-66
2021/08/19 12:35:07;;;;;;;11.00;5.60;;;17.70;99.90;;;;;;5071711;28;20049;-66
2021/08/19 12:37:35;;;;;;;12.93;5.90;;;17.80;99.90;;;;;;5055942;28;20053;-66
2021/08/19 12:40:15;;;;;;;13.85;6.55;;;17.70;99.90;;;;;;5074248;28;20373;-65